Time;durP1;ratioP1;P1;durP2;ratioP2;P2;SDS_P1;SDS_P2;PMS_P1;PMS_P2;Temp;Humidity;BMP_temperature;BMP_pressure;BME280_temperature;BME280_humidity;BME280_pressure;Samples;Min_cycle;Max_cycle;Signal;HPM_P1;HPM_P2
2024/02/18 00:00:33;;;;;;;8.85;1.83;;;10.50;99.90;;;;;;5040440;28;20120;-73
2024/02/18 00:02:59;;;;;;;4.00;1.50;;;10.50;99.90;;;;;;5044161;28;20108;-73
2024/02/18 00:05:24;;;;;;;8.63;1.52;;;10.50;99.90;;;;;;5042685;28;20033;-73
2024/02/18 00:07:50;;;;;;;7.47;1.75;;;10.60;99.90;;;;;;5039067;28;20068;-74
2024/02/18 00:10:15;;;;;;;12.25;2.33;;;10.50;99.90;;;;;;5042419;28;20040;-74
2024/02/18 00:12:41;;;;;;;5.97;1.70;;;10.50;99.90;;;;;;5044668;28;20029;-75
2024/02/18 00:15:07;;;;;;;2.63;1.42;;;10.50;99.90;;;;;;5038166;28;20053;-76
2024/02/18 00:17:33;;;;;;;11.13;2.10;;;10.50;99.90;;;;;;5041477;28;20367;-73
2024/02/18 00:19:58;;;;;;;10.68;2.88;;;10.40;99.90;;;;;;5041325;28;20501;-73
2024/02/18 00:22:24;;;;;;;7.82;2.15;;;10.50;99.90;;;;;;5041786;28;20037;-72
2024/02/18 00:24:53;;;;;;;2.83;1.33;;;10.40;99.90;;;;;;5042617;28;20025;-75
2024/02/18 00:27:18;;;;;;;8.20;1.75;;;10.40;99.90;;;;;;5041625;28;20121;-75
2024/02/18 00:29:44;;;;;;;5.85;1.20;;;10.40;99.90;;;;;;5042318;28;20120;-73
2024/02/18 00:32:10;;;;;;;11.07;2.50;;;10.40;99.90;;;;;;5046805;28;20538;-74
2024/02/18 00:34:35;;;;;;;8.40;1.30;;;10.40;99.90;;;;;;5039958;28;20033;-74
2024/02/18 00:37:01;;;;;;;8.13;2.78;;;10.40;99.90;;;;;;5039094;28;20040;-73
2024/02/18 00:39:27;;;;;;;5.55;1.40;;;10.40;99.90;;;;;;5039203;28;20036;-73
2024/02/18 00:41:53;;;;;;;7.50;1.73;;;10.40;99.90;;;;;;5043709;28;20076;-74
2024/02/18 00:44:23;;;;;;;5.70;1.75;;;10.50;99.90;;;;;;5044350;28;20101;-74
2024/02/18 00:46:49;;;;;;;7.50;1.47;;;10.50;99.90;;;;;;5047735;28;20057;-74
2024/02/18 00:49:15;;;;;;;6.60;1.75;;;10.50;99.90;;;;;;5040291;28;20083;-75
2024/02/18 00:51:40;;;;;;;4.50;1.40;;;10.50;99.90;;;;;;5040308;28;20503;-73
2024/02/18 00:54:06;;;;;;;9.50;1.85;;;10.50;99.90;;;;;;5041298;28;20106;-73
2024/02/18 00:56:31;;;;;;;11.82;2.30;;;10.60;99.90;;;;;;5048405;28;20029;-74
2024/02/18 00:58:57;;;;;;;3.53;1.70;;;10.60;99.90;;;;;;5052393;28;20033;-74
2024/02/18 01:01:23;;;;;;;3.80;1.58;;;10.60;99.90;;;;;;5052413;28;20498;-74
2024/02/18 01:03:48;;;;;;;8.25;1.48;;;10.60;99.90;;;;;;5049558;28;20040;-74
2024/02/18 01:06:14;;;;;;;5.28;1.83;;;10.60;99.90;;;;;;5044755;28;20028;-73
2024/02/18 01:08:41;;;;;;;5.53;1.23;;;10.60;99.90;;;;;;5041402;28;20037;-73
2024/02/18 01:11:06;;;;;;;6.55;2.17;;;10.70;99.90;;;;;;5043411;28;20033;-74
2024/02/18 01:13:33;;;;;;;2.75;1.42;;;10.70;99.90;;;;;;5044355;28;20048;-74
2024/02/18 01:15:59;;;;;;;3.50;1.30;;;10.70;99.90;;;;;;5043616;28;20078;-74
2024/02/18 01:18:24;;;;;;;7.25;1.50;;;10.70;99.90;;;;;;5035412;28;20037;-74
2024/02/18 01:20:50;;;;;;;9.25;2.65;;;10.80;99.90;;;;;;5038805;28;20166;-73
2024/02/18 01:23:15;;;;;;;5.18;1.50;;;10.80;99.90;;;;;;5041038;28;20109;-74
2024/02/18 01:25:41;;;;;;;6.13;1.50;;;10.80;99.90;;;;;;5044164;28;20087;-74
2024/02/18 01:28:06;;;;;;;8.35;1.40;;;10.80;99.90;;;;;;5037251;28;20461;-73
2024/02/18 01:30:32;;;;;;;7.78;2.00;;;10.80;99.90;;;;;;5043111;28;20029;-74
2024/02/18 01:32:58;;;;;;;11.60;1.58;;;10.90;99.90;;;;;;5040318;28;20025;-73
2024/02/18 01:35:23;;;;;;;5.07;1.88;;;10.90;99.90;;;;;;5043429;28;20043;-73
2024/02/18 01:37:49;;;;;;;8.98;1.55;;;10.90;99.90;;;;;;5047855;28;20128;-73
2024/02/18 01:40:15;;;;;;;5.32;1.80;;;10.90;99.90;;;;;;5037082;28;20148;-73
2024/02/18 01:42:40;;;;;;;3.85;1.55;;;10.90;99.90;;;;;;5039057;28;20048;-73
2024/02/18 01:45:08;;;;;;;14.15;1.90;;;10.90;99.90;;;;;;5039444;28;20033;-73
2024/02/18 01:47:36;;;;;;;2.70;1.20;;;10.90;99.90;;;;;;5045769;28;20064;-75
2024/02/18 01:50:03;;;;;;;5.68;2.17;;;11.00;99.90;;;;;;5046196;28;20044;-73
2024/02/18 01:52:28;;;;;;;5.57;1.65;;;11.00;99.90;;;;;;5044283;28;20037;-75
2024/02/18 01:54:55;;;;;;;9.23;1.38;;;11.00;99.90;;;;;;5044780;28;20044;-74
2024/02/18 01:57:22;;;;;;;6.18;1.98;;;11.00;99.90;;;;;;5045645;28;20563;-74
2024/02/18 01:59:48;;;;;;;4.47;1.48;;;11.00;99.90;;;;;;5045198;28;20045;-74
2024/02/18 02:02:14;;;;;;;4.72;1.23;;;11.00;99.90;;;;;;5044932;28;20044;-75
2024/02/18 02:04:39;;;;;;;9.30;2.75;;;11.00;99.90;;;;;;5047256;28;20041;-74
2024/02/18 02:07:06;;;;;;;5.85;1.90;;;11.00;99.90;;;;;;5045806;28;20116;-74
2024/02/18 02:09:32;;;;;;;8.80;1.52;;;11.00;99.90;;;;;;5040189;28;20029;-74
2024/02/18 02:11:58;;;;;;;4.18;1.52;;;11.00;99.90;;;;;;5045091;28;20689;-74
2024/02/18 02:14:24;;;;;;;10.18;1.42;;;11.10;99.90;;;;;;5044523;28;20051;-73
2024/02/18 02:16:50;;;;;;;7.35;1.65;;;11.00;99.90;;;;;;5046299;28;20053;-72
2024/02/18 02:19:15;;;;;;;8.35;1.58;;;11.00;99.90;;;;;;5045472;28;20061;-72
2024/02/18 02:21:41;;;;;;;5.90;1.10;;;11.00;99.90;;;;;;5044337;28;20041;-74
2024/02/18 02:24:07;;;;;;;4.03;1.58;;;11.10;99.90;;;;;;5043995;28;20037;-73
2024/02/18 02:26:37;;;;;;;6.00;1.42;;;11.00;99.90;;;;;;5038759;28;20395;-74
2024/02/18 02:29:15;;;;;;;11.43;1.27;;;11.00;99.90;;;;;;5045604;28;20060;-74
2024/02/18 02:31:42;;;;;;;6.50;1.30;;;11.00;99.90;;;;;;5044048;28;20573;-73
2024/02/18 02:34:07;;;;;;;3.70;1.10;;;11.00;99.90;;;;;;5042935;28;20100;-73
2024/02/18 02:36:33;;;;;;;7.45;1.20;;;11.00;99.90;;;;;;5043783;28;20057;-73
2024/02/18 02:38:59;;;;;;;2.05;1.30;;;11.00;99.90;;;;;;5042927;28;20033;-73
2024/02/18 02:41:25;;;;;;;5.50;1.20;;;11.00;99.90;;;;;;5022317;28;20037;-74
2024/02/18 02:43:50;;;;;;;6.93;1.10;;;10.90;99.90;;;;;;5020245;28;22034;-74
2024/02/18 02:46:16;;;;;;;7.97;1.48;;;10.90;99.90;;;;;;5041024;28;20075;-73
2024/02/18 02:48:41;;;;;;;5.40;1.67;;;11.00;99.90;;;;;;5039066;28;20037;-74
2024/02/18 02:51:07;;;;;;;6.28;2.00;;;10.90;99.90;;;;;;5036356;28;20032;-76
2024/02/18 02:53:33;;;;;;;2.40;1.05;;;10.90;99.90;;;;;;5039805;28;20033;-73
2024/02/18 02:55:59;;;;;;;5.97;1.45;;;10.90;99.90;;;;;;5039597;28;20053;-74
2024/02/18 02:58:25;;;;;;;7.05;2.13;;;10.80;99.90;;;;;;5059484;28;20107;-73
2024/02/18 03:00:51;;;;;;;7.90;1.40;;;10.70;99.90;;;;;;5045558;28;20051;-73
2024/02/18 03:03:16;;;;;;;6.85;1.50;;;10.60;99.90;;;;;;5065967;28;20043;-73
2024/02/18 03:05:42;;;;;;;10.68;2.03;;;10.50;99.90;;;;;;5066009;28;20447;-74
2024/02/18 03:08:09;;;;;;;6.32;1.45;;;10.50;99.90;;;;;;5066741;28;20505;-73
2024/02/18 03:10:38;;;;;;;8.43;2.05;;;10.40;99.90;;;;;;5045995;28;20040;-72
2024/02/18 03:13:04;;;;;;;7.65;1.77;;;10.30;99.90;;;;;;5048833;28;20560;-74
2024/02/18 03:15:30;;;;;;;3.47;1.42;;;10.30;99.90;;;;;;5055939;28;20137;-73
2024/02/18 03:17:58;;;;;;;12.50;1.85;;;10.20;99.90;;;;;;5045701;28;20048;-72
2024/02/18 03:20:24;;;;;;;7.57;1.90;;;10.20;99.90;;;;;;5044126;28;20036;-73
2024/02/18 03:22:50;;;;;;;3.10;1.02;;;10.20;99.90;;;;;;5067397;28;20394;-74
2024/02/18 03:25:16;;;;;;;13.00;2.25;;;10.10;99.90;;;;;;5048020;28;20063;-75
2024/02/18 03:27:42;;;;;;;6.05;1.40;;;10.10;99.90;;;;;;5067183;28;20422;-74
2024/02/18 03:30:08;;;;;;;3.38;1.25;;;10.10;99.90;;;;;;5048917;28;20029;-73
2024/02/18 03:32:37;;;;;;;8.43;1.95;;;10.00;99.90;;;;;;5063019;28;20063;-72
2024/02/18 03:35:07;;;;;;;7.13;1.67;;;10.00;99.90;;;;;;5060388;28;20347;-71
2024/02/18 03:37:33;;;;;;;6.78;1.70;;;10.00;99.90;;;;;;5064642;28;20456;-73
2024/02/18 03:39:59;;;;;;;6.55;1.10;;;9.90;99.90;;;;;;5063231;28;20044;-75
2024/02/18 03:42:24;;;;;;;5.28;1.52;;;9.90;99.90;;;;;;5045709;28;20035;-72
2024/02/18 03:44:50;;;;;;;7.88;1.02;;;9.90;99.90;;;;;;5065811;28;20099;-73
2024/02/18 03:47:16;;;;;;;10.23;2.22;;;9.90;99.90;;;;;;5063863;28;20056;-75
2024/02/18 03:49:42;;;;;;;8.18;1.77;;;9.90;99.90;;;;;;5048813;28;20045;-74
2024/02/18 03:52:08;;;;;;;6.20;1.20;;;9.90;99.90;;;;;;5046110;28;20106;-73
2024/02/18 03:54:34;;;;;;;9.38;1.30;;;9.90;99.90;;;;;;5042423;28;20065;-73
2024/02/18 03:57:00;;;;;;;6.63;1.30;;;9.90;99.90;;;;;;5048443;28;20032;-72
2024/02/18 03:59:25;;;;;;;9.20;1.60;;;9.80;99.90;;;;;;5061466;28;20037;-74
2024/02/18 04:01:51;;;;;;;5.90;0.98;;;9.80;99.90;;;;;;5055735;28;20040;-73
2024/02/18 04:04:17;;;;;;;4.03;1.30;;;9.80;99.90;;;;;;5043257;28;20409;-74
2024/02/18 04:06:43;;;;;;;7.43;1.63;;;9.80;99.90;;;;;;5062028;28;20680;-73
2024/02/18 04:09:11;;;;;;;10.93;1.20;;;9.80;99.90;;;;;;5044869;28;20448;-75
2024/02/18 04:11:37;;;;;;;6.18;1.10;;;9.80;99.90;;;;;;5042355;28;20025;-72
2024/02/18 04:14:03;;;;;;;5.65;1.77;;;9.80;99.90;;;;;;5062579;28;20098;-73
2024/02/18 04:16:29;;;;;;;3.95;1.60;;;9.80;99.90;;;;;;5058104;28;20060;-75
2024/02/18 04:18:55;;;;;;;4.53;1.00;;;9.80;99.90;;;;;;5062522;28;20060;-73
2024/02/18 04:21:20;;;;;;;9.30;1.20;;;9.80;99.90;;;;;;5040534;28;20507;-72
2024/02/18 04:23:46;;;;;;;4.88;0.90;;;9.80;99.90;;;;;;5044585;28;20048;-74
2024/02/18 04:26:11;;;;;;;2.42;0.82;;;9.90;99.90;;;;;;5062129;28;20090;-74
2024/02/18 04:28:37;;;;;;;2.95;0.95;;;9.90;99.90;;;;;;5060291;28;20044;-74
2024/02/18 04:31:03;;;;;;;3.35;0.80;;;9.80;99.90;;;;;;5063904;28;20029;-71
2024/02/18 04:33:28;;;;;;;6.93;1.15;;;9.80;99.90;;;;;;5040981;28;20087;-73
2024/02/18 04:35:54;;;;;;;5.97;1.02;;;9.80;99.90;;;;;;5062223;28;20040;-73
2024/02/18 04:38:20;;;;;;;6.25;1.55;;;9.80;99.90;;;;;;5035065;28;20045;-74
2024/02/18 04:40:45;;;;;;;7.85;1.20;;;9.80;99.90;;;;;;5041087;28;20041;-74
2024/02/18 04:43:11;;;;;;;5.82;1.23;;;9.80;99.90;;;;;;5042218;28;20082;-74
2024/02/18 04:45:37;;;;;;;4.18;1.23;;;9.80;99.90;;;;;;5063494;28;20086;-75
2024/02/18 04:48:04;;;;;;;6.22;1.33;;;9.80;99.90;;;;;;5043867;28;20029;-73
2024/02/18 04:50:29;;;;;;;5.43;1.00;;;9.80;99.90;;;;;;5060890;28;20040;-71
2024/02/18 04:52:55;;;;;;;3.33;1.08;;;9.70;99.90;;;;;;5065434;28;20115;-72
2024/02/18 04:55:20;;;;;;;4.47;1.10;;;9.80;99.90;;;;;;5041779;28;20044;-73
2024/02/18 04:57:46;;;;;;;5.75;1.20;;;9.70;99.90;;;;;;5060038;28;20061;-74
2024/02/18 05:00:12;;;;;;;5.32;1.10;;;9.70;99.90;;;;;;5042582;28;20079;-73
2024/02/18 05:02:38;;;;;;;12.88;1.50;;;9.70;99.90;;;;;;5058851;28;20031;-73
2024/02/18 05:05:06;;;;;;;15.57;1.98;;;9.70;99.90;;;;;;5060500;28;20025;-74
2024/02/18 05:07:32;;;;;;;6.47;1.08;;;9.70;99.90;;;;;;5039464;28;20060;-73
2024/02/18 05:09:58;;;;;;;4.78;1.20;;;9.70;99.90;;;;;;5061411;28;20048;-73
2024/02/18 05:12:24;;;;;;;4.10;1.02;;;9.70;99.90;;;;;;5056797;28;20060;-73
2024/02/18 05:14:49;;;;;;;3.35;1.10;;;9.70;99.90;;;;;;5063723;28;20402;-73
2024/02/18 05:17:15;;;;;;;3.33;1.08;;;9.70;99.90;;;;;;5057686;28;20033;-72
2024/02/18 05:19:40;;;;;;;4.18;1.10;;;9.70;99.90;;;;;;5056576;28;20397;-73
2024/02/18 05:22:06;;;;;;;9.48;1.90;;;9.60;99.90;;;;;;5058141;28;20039;-73
2024/02/18 05:24:32;;;;;;;7.63;2.65;;;9.60;99.90;;;;;;5057330;28;20044;-73
2024/02/18 05:26:58;;;;;;;7.05;1.30;;;9.60;99.90;;;;;;5063997;28;20040;-73
2024/02/18 05:29:24;;;;;;;9.35;1.40;;;9.50;99.90;;;;;;5063120;28;20044;-73
2024/02/18 05:31:50;;;;;;;9.85;1.67;;;9.50;99.90;;;;;;5040008;28;20095;-72
2024/02/18 05:34:16;;;;;;;7.65;1.75;;;9.50;99.90;;;;;;5043884;28;20085;-74
2024/02/18 05:36:43;;;;;;;5.50;1.42;;;9.50;99.90;;;;;;5047615;28;20033;-74
2024/02/18 05:39:10;;;;;;;4.65;1.77;;;9.50;99.90;;;;;;5037004;28;20041;-73
2024/02/18 05:41:36;;;;;;;5.18;1.33;;;9.40;99.90;;;;;;5040455;28;20034;-73
2024/02/18 05:44:02;;;;;;;12.60;1.60;;;9.50;99.90;;;;;;5041901;28;20116;-74
2024/02/18 05:46:27;;;;;;;6.45;1.20;;;9.40;99.90;;;;;;5047110;28;20633;-73
2024/02/18 05:48:53;;;;;;;5.40;1.60;;;9.40;99.90;;;;;;5047073;28;20383;-75
2024/02/18 05:51:18;;;;;;;5.15;1.65;;;9.40;99.90;;;;;;5037810;28;20494;-73
2024/02/18 05:53:44;;;;;;;5.10;1.42;;;9.40;99.90;;;;;;5043550;28;20122;-73
2024/02/18 05:56:09;;;;;;;4.25;1.63;;;9.30;99.90;;;;;;5024983;28;20040;-73
2024/02/18 05:58:35;;;;;;;3.40;1.10;;;9.40;99.90;;;;;;5041417;28;20029;-74
2024/02/18 06:01:01;;;;;;;9.35;1.60;;;9.30;99.90;;;;;;5027964;28;20116;-74
2024/02/18 06:03:27;;;;;;;5.32;1.80;;;9.30;99.90;;;;;;5046101;28;20037;-74
2024/02/18 06:05:52;;;;;;;7.97;1.48;;;9.30;99.90;;;;;;5043361;28;20436;-72
2024/02/18 06:08:18;;;;;;;6.18;1.50;;;9.30;99.90;;;;;;5042494;28;20132;-73
2024/02/18 06:10:43;;;;;;;9.70;1.50;;;9.40;99.90;;;;;;5044121;28;20104;-73
2024/02/18 06:13:09;;;;;;;10.05;1.50;;;9.40;99.90;;;;;;5046525;28;20025;-73
2024/02/18 06:15:34;;;;;;;7.85;1.67;;;9.40;99.90;;;;;;5041094;28;20029;-72
2024/02/18 06:18:00;;;;;;;8.73;1.95;;;9.30;99.90;;;;;;5039927;28;20126;-74
2024/02/18 06:20:27;;;;;;;6.93;1.55;;;9.40;99.90;;;;;;5044852;28;20106;-73
2024/02/18 06:22:52;;;;;;;19.30;2.58;;;9.30;99.90;;;;;;5045153;28;20033;-72
2024/02/18 06:25:18;;;;;;;4.70;1.25;;;9.30;99.90;;;;;;5046185;28;20037;-74
2024/02/18 06:27:44;;;;;;;6.13;1.77;;;9.30;99.90;;;;;;5044837;28;20037;-73
2024/02/18 06:30:10;;;;;;;6.35;1.98;;;9.30;99.90;;;;;;5046051;28;20079;-73
2024/02/18 06:32:37;;;;;;;10.93;1.75;;;9.30;99.90;;;;;;5042198;28;20032;-73
2024/02/18 06:35:03;;;;;;;10.43;1.65;;;9.30;99.90;;;;;;5043498;28;20048;-74
2024/02/18 06:37:29;;;;;;;9.05;1.30;;;9.30;99.90;;;;;;5042508;28;20083;-73
2024/02/18 06:39:54;;;;;;;5.95;2.10;;;9.30;99.90;;;;;;5045846;28;20029;-73
2024/02/18 06:42:20;;;;;;;7.35;1.80;;;9.30;99.90;;;;;;5046066;28;20049;-74
2024/02/18 06:44:45;;;;;;;7.45;1.33;;;9.30;99.90;;;;;;5045729;28;20533;-74
2024/02/18 06:47:11;;;;;;;5.90;1.35;;;9.20;99.90;;;;;;5044487;28;20034;-73
2024/02/18 06:49:37;;;;;;;5.38;1.30;;;9.30;99.90;;;;;;5045487;28;20056;-74
2024/02/18 06:52:03;;;;;;;13.07;1.73;;;9.30;99.90;;;;;;5036384;28;20029;-73
2024/02/18 06:54:29;;;;;;;11.80;1.60;;;9.20;99.90;;;;;;5045488;28;20033;-73
2024/02/18 06:56:54;;;;;;;7.20;1.23;;;9.20;99.90;;;;;;5046274;28;20383;-74
2024/02/18 06:59:20;;;;;;;8.32;1.98;;;9.20;99.90;;;;;;5045932;28;20127;-73
2024/02/18 07:01:46;;;;;;;9.27;2.20;;;9.20;99.90;;;;;;5044919;28;20041;-74
2024/02/18 07:04:12;;;;;;;7.45;1.67;;;9.20;99.90;;;;;;5021230;28;20390;-73
2024/02/18 07:06:37;;;;;;;9.73;1.50;;;9.20;99.90;;;;;;5043286;28;20106;-72
2024/02/18 07:09:03;;;;;;;5.43;1.52;;;9.20;99.90;;;;;;5045537;28;20083;-72
2024/02/18 07:11:29;;;;;;;6.38;1.80;;;9.20;99.90;;;;;;5045673;28;20037;-73
2024/02/18 07:13:55;;;;;;;9.77;1.80;;;9.20;99.90;;;;;;5032386;28;20094;-76
2024/02/18 07:16:20;;;;;;;6.85;1.40;;;9.10;99.90;;;;;;5045957;28;21021;-74
2024/02/18 07:18:46;;;;;;;5.32;1.20;;;9.10;99.90;;;;;;5045940;28;20048;-74
2024/02/18 07:21:14;;;;;;;8.20;1.65;;;9.10;99.90;;;;;;5022129;28;20041;-73
2024/02/18 07:23:40;;;;;;;6.93;2.25;;;9.10;99.90;;;;;;5041910;28;20064;-72
2024/02/18 07:26:13;;;;;;;13.43;1.58;;;9.20;99.90;;;;;;5041939;28;20036;-74
2024/02/18 07:28:40;;;;;;;3.38;1.17;;;9.10;99.90;;;;;;5041482;28;20036;-72
2024/02/18 07:31:05;;;;;;;8.25;2.60;;;9.10;99.90;;;;;;5043710;28;20052;-74
2024/02/18 07:33:31;;;;;;;9.77;1.52;;;9.10;99.90;;;;;;5024158;28;20466;-73
2024/02/18 07:35:57;;;;;;;11.38;1.35;;;9.10;99.90;;;;;;5024403;28;20037;-74
2024/02/18 07:38:22;;;;;;;6.93;1.30;;;9.10;99.90;;;;;;5043135;28;20037;-72
2024/02/18 07:40:48;;;;;;;4.90;1.15;;;9.10;99.90;;;;;;5035318;28;20132;-73
2024/02/18 07:43:14;;;;;;;6.45;1.80;;;9.10;99.90;;;;;;5036906;28;20064;-74
2024/02/18 07:45:40;;;;;;;11.38;1.38;;;9.10;99.90;;;;;;5042713;28;20037;-74
2024/02/18 07:48:06;;;;;;;7.28;1.35;;;9.10;99.90;;;;;;5045913;28;20060;-73
2024/02/18 07:50:32;;;;;;;13.85;1.48;;;9.10;99.90;;;;;;5043315;28;20098;-72
2024/02/18 07:52:57;;;;;;;11.90;1.85;;;9.10;99.90;;;;;;5047524;28;20394;-73
2024/02/18 07:55:24;;;;;;;3.65;1.20;;;9.10;99.90;;;;;;5048132;28;20098;-73
2024/02/18 07:57:49;;;;;;;7.05;1.17;;;9.10;99.90;;;;;;5043689;28;20026;-73
2024/02/18 08:00:15;;;;;;;5.60;1.70;;;9.10;99.90;;;;;;5038367;28;20040;-72
2024/02/18 08:02:41;;;;;;;4.85;1.85;;;9.10;99.90;;;;;;5028381;28;20461;-74
2024/02/18 08:05:08;;;;;;;13.88;2.90;;;9.00;99.90;;;;;;5038796;28;20087;-73
2024/02/18 08:07:33;;;;;;;10.52;1.85;;;9.10;99.90;;;;;;5043012;28;20033;-73
2024/02/18 08:09:59;;;;;;;6.50;1.48;;;9.10;99.90;;;;;;5044611;28;20375;-73
2024/02/18 08:12:25;;;;;;;8.13;1.42;;;9.10;99.90;;;;;;5043479;28;20528;-73
2024/02/18 08:14:51;;;;;;;4.15;1.38;;;9.10;99.90;;;;;;5049178;28;20116;-73
2024/02/18 08:17:17;;;;;;;9.20;2.20;;;9.10;99.90;;;;;;5046916;28;20137;-73
2024/02/18 08:19:43;;;;;;;8.13;1.60;;;9.10;99.90;;;;;;5042349;28;20084;-73
2024/02/18 08:22:08;;;;;;;9.88;1.80;;;9.10;99.90;;;;;;5041193;28;20033;-73
2024/02/18 08:24:34;;;;;;;14.38;1.75;;;9.10;99.90;;;;;;5044540;28;20025;-71
2024/02/18 08:27:00;;;;;;;10.43;2.65;;;9.10;99.90;;;;;;5047793;28;20033;-74
2024/02/18 08:29:26;;;;;;;8.88;1.38;;;9.10;99.90;;;;;;5042112;28;20039;-73
2024/02/18 08:31:51;;;;;;;14.35;1.77;;;9.10;99.90;;;;;;5042529;28;20029;-73
2024/02/18 08:34:17;;;;;;;7.13;1.17;;;9.10;99.90;;;;;;5041415;28;20029;-74
2024/02/18 08:36:42;;;;;;;5.70;1.40;;;9.10;99.90;;;;;;5044592;28;20037;-73
2024/02/18 08:39:08;;;;;;;7.40;1.52;;;9.10;99.90;;;;;;5046115;28;20099;-72
2024/02/18 08:41:33;;;;;;;12.70;1.50;;;9.10;99.90;;;;;;5040969;28;20488;-73
2024/02/18 08:43:59;;;;;;;10.23;1.17;;;9.10;99.90;;;;;;5042038;28;20045;-73
2024/02/18 08:46:24;;;;;;;9.07;2.28;;;9.10;99.90;;;;;;5044349;28;20052;-73
2024/02/18 08:48:50;;;;;;;4.10;1.17;;;9.10;99.90;;;;;;5037742;28;20047;-73
2024/02/18 08:51:16;;;;;;;9.30;2.33;;;9.10;99.90;;;;;;5039663;28;20056;-74
2024/02/18 08:53:41;;;;;;;14.35;1.30;;;9.10;99.90;;;;;;5040567;28;20033;-73
2024/02/18 08:56:10;;;;;;;7.53;2.03;;;9.10;99.90;;;;;;5047580;28;20112;-73
2024/02/18 08:58:36;;;;;;;11.57;1.30;;;9.20;99.90;;;;;;5047697;28;20048;-75
2024/02/18 09:01:02;;;;;;;9.38;1.80;;;9.20;99.90;;;;;;5047203;28;20692;-74
2024/02/18 09:03:28;;;;;;;8.18;1.38;;;9.10;99.90;;;;;;5047290;28;20047;-74
2024/02/18 09:05:54;;;;;;;13.65;2.22;;;9.20;99.90;;;;;;5039995;28;20101;-73
2024/02/18 09:08:20;;;;;;;4.22;1.38;;;9.20;99.90;;;;;;5039032;28;20044;-73
2024/02/18 09:10:46;;;;;;;10.20;1.58;;;9.20;99.90;;;;;;5037442;28;24817;-73
2024/02/18 09:13:11;;;;;;;12.63;2.95;;;9.20;99.90;;;;;;5040630;28;20755;-72
2024/02/18 09:15:37;;;;;;;10.40;3.05;;;9.20;99.90;;;;;;5047105;28;20029;-74
2024/02/18 09:18:03;;;;;;;6.65;1.27;;;9.20;99.90;;;;;;5045594;28;20029;-73
2024/02/18 09:20:29;;;;;;;13.90;1.70;;;9.20;99.90;;;;;;5038210;28;20789;-72
2024/02/18 09:22:55;;;;;;;3.90;1.50;;;9.30;99.90;;;;;;5037205;28;20045;-72
2024/02/18 09:25:21;;;;;;;7.50;1.85;;;9.30;99.90;;;;;;5043463;28;20025;-73
2024/02/18 09:27:47;;;;;;;6.57;1.58;;;9.30;99.90;;;;;;5046281;28;20033;-74
2024/02/18 09:30:13;;;;;;;5.50;1.52;;;9.30;99.90;;;;;;5046229;28;20032;-73
2024/02/18 09:32:40;;;;;;;11.73;1.55;;;9.30;99.90;;;;;;5038837;28;20540;-73
2024/02/18 09:35:05;;;;;;;8.60;1.40;;;9.30;99.90;;;;;;5042952;28;20047;-73
2024/02/18 09:37:31;;;;;;;6.47;1.23;;;9.30;99.90;;;;;;5044855;28;20063;-76
2024/02/18 09:39:56;;;;;;;11.20;2.50;;;9.30;99.90;;;;;;5045014;28;20617;-72
2024/02/18 09:42:22;;;;;;;6.57;1.40;;;9.20;99.90;;;;;;5039793;28;20033;-74
2024/02/18 09:44:49;;;;;;;13.98;1.73;;;9.30;99.90;;;;;;5040346;28;20037;-73
2024/02/18 09:47:16;;;;;;;5.78;1.65;;;9.30;99.90;;;;;;5042946;28;20091;-72
2024/02/18 09:49:42;;;;;;;5.10;1.95;;;9.30;99.90;;;;;;5039168;28;20150;-74
2024/02/18 09:52:11;;;;;;;6.18;2.17;;;9.30;99.90;;;;;;5029485;28;20029;-73
2024/02/18 09:54:36;;;;;;;12.25;1.67;;;9.20;99.90;;;;;;5020157;28;20038;-73
2024/02/18 09:57:03;;;;;;;5.70;1.67;;;9.30;99.90;;;;;;5038522;28;20056;-75
2024/02/18 09:59:29;;;;;;;10.55;1.52;;;9.30;99.90;;;;;;5034325;28;20517;-73
2024/02/18 10:01:58;;;;;;;3.17;1.60;;;9.30;99.90;;;;;;5043261;28;20129;-73
2024/02/18 10:04:25;;;;;;;9.65;1.60;;;9.30;99.90;;;;;;5038393;28;20036;-74
2024/02/18 10:06:54;;;;;;;5.50;1.52;;;9.30;99.90;;;;;;5040996;28;20376;-75
2024/02/18 10:09:20;;;;;;;6.38;1.50;;;9.20;99.90;;;;;;5037243;28;20413;-74
2024/02/18 10:11:45;;;;;;;3.35;1.70;;;9.30;99.90;;;;;;5044752;28;20029;-77
2024/02/18 10:14:11;;;;;;;6.75;2.00;;;9.20;99.90;;;;;;5041118;28;20051;-73
2024/02/18 10:16:36;;;;;;;6.97;1.60;;;9.30;99.90;;;;;;5038380;28;20038;-74
2024/02/18 10:19:02;;;;;;;6.78;1.30;;;9.30;99.90;;;;;;5038014;28;20037;-74
2024/02/18 10:21:28;;;;;;;5.28;2.15;;;9.30;99.90;;;;;;5035180;28;20076;-74
2024/02/18 10:23:54;;;;;;;11.38;1.98;;;9.30;99.90;;;;;;5039002;28;20086;-75
2024/02/18 10:26:20;;;;;;;5.88;1.73;;;9.30;99.90;;;;;;5044340;28;20060;-74
2024/02/18 10:28:46;;;;;;;9.45;2.92;;;9.20;99.90;;;;;;5058980;28;21453;-73
2024/02/18 10:31:12;;;;;;;7.80;1.63;;;9.30;99.90;;;;;;5065964;28;20032;-73
2024/02/18 10:33:38;;;;;;;15.13;2.10;;;9.30;99.90;;;;;;5058617;28;20496;-73
2024/02/18 10:36:08;;;;;;;10.60;2.55;;;9.20;99.90;;;;;;5038971;28;20037;-74
2024/02/18 10:38:36;;;;;;;4.80;1.42;;;9.20;99.90;;;;;;5037383;28;20041;-71
2024/02/18 10:41:07;;;;;;;5.20;1.95;;;9.20;99.90;;;;;;5057466;28;20028;-73
2024/02/18 10:43:41;;;;;;;9.65;2.30;;;9.20;99.90;;;;;;5053796;28;20039;-73
2024/02/18 10:46:07;;;;;;;14.75;2.28;;;9.20;99.90;;;;;;5045931;28;20570;-72
2024/02/18 10:48:35;;;;;;;11.55;2.80;;;9.20;99.90;;;;;;5065142;28;20564;-73
2024/02/18 10:51:02;;;;;;;7.28;2.20;;;9.20;99.90;;;;;;5041198;28;20035;-72
2024/02/18 10:53:37;;;;;;;6.35;1.98;;;9.20;99.90;;;;;;5058651;28;20043;-74
2024/02/18 10:56:09;;;;;;;9.88;1.65;;;9.30;99.90;;;;;;5060850;28;20150;-74
2024/02/18 10:58:41;;;;;;;7.18;2.80;;;9.20;99.90;;;;;;5064068;28;20060;-73
2024/02/18 11:01:08;;;;;;;14.20;2.75;;;9.20;99.90;;;;;;5046435;28;20041;-76
2024/02/18 11:03:49;;;;;;;14.60;2.60;;;9.20;99.90;;;;;;5064854;28;20037;-76
2024/02/18 11:06:16;;;;;;;13.18;3.28;;;9.20;99.90;;;;;;5059532;28;20102;-73
2024/02/18 11:08:44;;;;;;;8.15;2.05;;;9.20;99.90;;;;;;5063353;28;20397;-75
2024/02/18 11:11:12;;;;;;;9.00;2.53;;;9.20;99.90;;;;;;5063469;28;20029;-74
2024/02/18 11:13:39;;;;;;;15.38;3.65;;;9.30;99.90;;;;;;5063219;28;20056;-74
2024/02/18 11:16:05;;;;;;;7.18;1.60;;;9.30;99.90;;;;;;5064207;28;20040;-72
2024/02/18 11:18:32;;;;;;;4.65;1.88;;;9.30;99.90;;;;;;5064294;28;20101;-76
2024/02/18 11:20:58;;;;;;;4.68;1.85;;;9.20;99.90;;;;;;5065219;28;20028;-74
2024/02/18 11:23:23;;;;;;;8.23;2.50;;;9.30;99.90;;;;;;5068570;28;20055;-74
2024/02/18 11:25:50;;;;;;;13.75;2.58;;;9.30;99.90;;;;;;5063798;28;20490;-74
2024/02/18 11:28:17;;;;;;;11.07;2.10;;;9.20;99.90;;;;;;5066075;28;20044;-74
2024/02/18 11:30:43;;;;;;;8.40;2.08;;;9.20;99.90;;;;;;5067933;28;20058;-75
2024/02/18 11:33:08;;;;;;;9.30;2.25;;;9.20;99.90;;;;;;5068732;28;20120;-73
2024/02/18 11:35:34;;;;;;;4.90;1.80;;;9.20;99.90;;;;;;5068462;28;20111;-72
2024/02/18 11:38:01;;;;;;;7.18;1.80;;;9.20;99.90;;;;;;5069069;28;20035;-74
2024/02/18 11:40:27;;;;;;;9.82;2.13;;;9.10;99.90;;;;;;5047854;28;20025;-73
2024/02/18 11:42:54;;;;;;;8.13;2.00;;;9.20;99.90;;;;;;5026001;28;20037;-72
2024/02/18 11:45:20;;;;;;;11.70;2.33;;;9.20;99.90;;;;;;5046512;28;20036;-73
2024/02/18 11:47:50;;;;;;;5.13;1.80;;;9.20;99.90;;;;;;5047083;28;20090;-74
2024/02/18 11:50:17;;;;;;;6.67;1.73;;;9.20;99.90;;;;;;5026449;28;20046;-72
2024/02/18 11:52:45;;;;;;;6.35;2.35;;;9.20;99.90;;;;;;5046420;28;20029;-74
2024/02/18 11:55:16;;;;;;;12.05;2.05;;;9.20;99.90;;;;;;5025168;28;20021;-74
2024/02/18 11:57:42;;;;;;;12.23;2.28;;;9.20;99.90;;;;;;5028805;28;20555;-73
2024/02/18 12:00:16;;;;;;;4.82;1.60;;;9.20;99.90;;;;;;5047182;28;20025;-73
2024/02/18 12:02:48;;;;;;;7.82;2.08;;;9.20;99.90;;;;;;5044464;28;20482;-73
2024/02/18 12:05:14;;;;;;;8.13;2.13;;;9.20;99.90;;;;;;5040426;28;20116;-75
2024/02/18 12:07:40;;;;;;;9.38;1.63;;;9.20;99.90;;;;;;5039832;28;20061;-74
2024/02/18 12:10:06;;;;;;;9.05;1.50;;;9.20;99.90;;;;;;5027400;28;20088;-74
2024/02/18 12:12:32;;;;;;;6.10;1.65;;;9.20;99.90;;;;;;5043967;28;20033;-73
2024/02/18 12:14:57;;;;;;;3.15;1.73;;;9.20;99.90;;;;;;5044708;28;20029;-73
2024/02/18 12:17:23;;;;;;;4.30;1.10;;;9.20;99.90;;;;;;5028783;28;20048;-74
2024/02/18 12:19:51;;;;;;;5.75;1.90;;;9.20;99.90;;;;;;5051364;28;20033;-73
2024/02/18 12:22:20;;;;;;;5.20;1.30;;;9.20;99.90;;;;;;5044204;28;20048;-73
2024/02/18 12:24:48;;;;;;;4.50;1.50;;;9.20;99.90;;;;;;5043847;28;20361;-73
2024/02/18 12:27:14;;;;;;;4.47;1.17;;;9.30;99.90;;;;;;5042921;28;20071;-73
2024/02/18 12:29:39;;;;;;;4.25;1.55;;;9.20;99.90;;;;;;5044004;28;20083;-72
2024/02/18 12:32:05;;;;;;;12.80;1.70;;;9.20;99.90;;;;;;5046592;28;20029;-75
2024/02/18 12:34:32;;;;;;;4.45;1.10;;;9.30;99.90;;;;;;5026404;28;20045;-71
2024/02/18 12:36:58;;;;;;;4.07;1.40;;;9.30;99.90;;;;;;5029093;28;20113;-70
2024/02/18 12:39:26;;;;;;;4.13;1.20;;;9.30;99.90;;;;;;5047102;28;20517;-71
2024/02/18 12:41:52;;;;;;;3.63;1.50;;;9.30;99.90;;;;;;5044564;28;20094;-73
2024/02/18 12:44:18;;;;;;;4.10;1.58;;;9.30;99.90;;;;;;5036958;28;20030;-75
2024/02/18 12:46:43;;;;;;;2.10;1.10;;;9.40;99.90;;;;;;5043945;28;20072;-75